Burgos Airport


Codes: LEBG/RGS
Name: Burgos Airport
City: Burgos
Country: Spain
Elevation: 2945 ft.
Website:
Wikipedia:

Photos at Burgos Airport


   Photos courtesy of SpottingLog. You can add your own sightings and photos by signing up for a free trial today.



No photos found.

Weather at Burgos Airport


Time (UTC)DescriptionTempratureWindCloud coverageVisibilityPressureHumidity
15-Apr-2024 18:00Clear Sky15°C13 mph, NE0%10000m1023hPa67%
15-Apr-2024 21:00Clear Sky13°C9 mph, NE0%10000m1023hPa74%
16-Apr-2024 00:00Clear Sky9°C9 mph, NE3%10000m1024hPa83%
16-Apr-2024 03:00Scattered Clouds6°C9 mph, NE31%10000m1024hPa90%
16-Apr-2024 06:00Scattered Clouds5°C11 mph, NE33%10000m1024hPa92%
16-Apr-2024 09:00Scattered Clouds9°C13 mph, NE30%10000m1023hPa66%
16-Apr-2024 12:00Few Clouds13°C16 mph, NE17%10000m1021hPa53%
16-Apr-2024 15:00Clear Sky13°C16 mph, N2%10000m1020hPa52%
16-Apr-2024 18:00Clear Sky9°C13 mph, NE2%10000m1020hPa65%
16-Apr-2024 21:00Clear Sky5°C11 mph, NE3%10000m1023hPa87%
17-Apr-2024 00:00Few Clouds4°C13 mph, NE12%10000m1023hPa86%
17-Apr-2024 03:00Scattered Clouds4°C11 mph, NE35%10000m1021hPa83%
17-Apr-2024 06:00Scattered Clouds4°C11 mph, NE40%10000m1021hPa82%
17-Apr-2024 09:00Scattered Clouds8°C16 mph, NE47%10000m1020hPa64%
17-Apr-2024 12:00Scattered Clouds11°C16 mph, NE28%10000m1018hPa54%
17-Apr-2024 15:00Clear Sky11°C16 mph, NE1%10000m1017hPa57%
17-Apr-2024 18:00Clear Sky8°C13 mph, NE1%10000m1018hPa68%
17-Apr-2024 21:00Clear Sky4°C13 mph, NE0%10000m1021hPa85%
18-Apr-2024 00:00Clear Sky2°C11 mph, NE0%10000m1021hPa88%
18-Apr-2024 03:00Scattered Clouds2°C13 mph, NE30%10000m1021hPa88%
18-Apr-2024 06:00Scattered Clouds2°C13 mph, NE40%10000m1021hPa87%
18-Apr-2024 09:00Few Clouds8°C16 mph, NE23%10000m1019hPa62%
18-Apr-2024 12:00Few Clouds11°C18 mph, NE12%10000m1018hPa56%
18-Apr-2024 15:00Clear Sky12°C18 mph, NE0%10000m1017hPa54%
18-Apr-2024 18:00Clear Sky8°C18 mph, NE0%10000m1019hPa62%
18-Apr-2024 21:00Clear Sky3°C16 mph, NE1%10000m1023hPa72%
19-Apr-2024 00:00Clear Sky2°C13 mph, NE1%10000m1023hPa83%
19-Apr-2024 03:00Few Clouds1°C11 mph, NE19%10000m1023hPa90%
19-Apr-2024 06:00Few Clouds0°C9 mph, NE12%10000m1024hPa86%
19-Apr-2024 09:00Clear Sky9°C7 mph, NE0%10000m1022hPa44%
19-Apr-2024 12:00Clear Sky14°C2 mph, NE0%10000m1020hPa32%
19-Apr-2024 15:00Clear Sky16°C7 mph, NE0%10000m1018hPa32%
19-Apr-2024 18:00Clear Sky12°C11 mph, NE0%10000m1019hPa55%
19-Apr-2024 21:00Clear Sky7°C9 mph, NE0%10000m1021hPa63%
20-Apr-2024 00:00Clear Sky5°C7 mph, NE0%10000m1022hPa70%
20-Apr-2024 03:00Clear Sky4°C7 mph, NE3%10000m1022hPa75%
20-Apr-2024 06:00Clear Sky4°C7 mph, NE3%10000m1022hPa78%
20-Apr-2024 09:00Clear Sky12°C11 mph, NE0%10000m1020hPa45%
20-Apr-2024 12:00Clear Sky16°C16 mph, NE0%10000m1019hPa28%
20-Apr-2024 15:00Clear Sky16°C18 mph, NE0%10000m1018hPa35%